createdAt,value
2023-02-13T00:00:19.137Z,8.02
2023-02-13T00:02:45.876Z,7.88
2023-02-13T00:05:12.516Z,7.93
2023-02-13T00:07:39.416Z,7.07
2023-02-13T00:10:06.804Z,7.75
2023-02-13T00:12:33.548Z,8.35
2023-02-13T00:15:00.600Z,8.25
2023-02-13T00:17:27.485Z,8.55
2023-02-13T00:19:54.092Z,7.68
2023-02-13T00:22:20.761Z,8.60
2023-02-13T00:24:47.349Z,9.38
2023-02-13T00:27:14.236Z,8.20
2023-02-13T00:29:40.852Z,7.65
2023-02-13T00:32:07.594Z,8.80
2023-02-13T00:34:34.375Z,8.10
2023-02-13T00:37:03.352Z,8.18
2023-02-13T00:39:30.089Z,8.10
2023-02-13T00:41:56.692Z,8.32
2023-02-13T00:44:23.303Z,8.10
2023-02-13T00:46:49.967Z,9.60
2023-02-13T00:49:16.997Z,8.20
2023-02-13T00:51:43.690Z,7.60
2023-02-13T00:54:10.355Z,8.70
2023-02-13T00:56:37.225Z,8.43
2023-02-13T00:59:05.316Z,8.75
2023-02-13T01:01:32.442Z,8.77
2023-02-13T01:03:59.928Z,9.63
2023-02-13T01:06:27.808Z,10.60
2023-02-13T01:08:54.491Z,9.52
2023-02-13T01:11:21.223Z,8.88
2023-02-13T01:13:47.736Z,9.90
2023-02-13T01:16:17.803Z,9.07
2023-02-13T01:18:45.333Z,9.25
2023-02-13T01:21:18.314Z,9.32
2023-02-13T01:23:46.198Z,8.75
2023-02-13T01:26:19.438Z,8.75
2023-02-13T01:28:46.648Z,8.85
2023-02-13T01:31:13.411Z,7.72
2023-02-13T01:33:40.121Z,8.15
2023-02-13T01:36:11.851Z,7.93
2023-02-13T01:38:38.724Z,9.20
2023-02-13T01:41:05.673Z,8.55
2023-02-13T01:43:58.699Z,8.15
2023-02-13T01:46:35.754Z,8.27
2023-02-13T01:49:19.560Z,9.20
2023-02-13T01:51:49.600Z,9.32
2023-02-13T01:54:23.681Z,9.77
2023-02-13T01:56:55.332Z,10.20
2023-02-13T01:59:29.257Z,9.35
2023-02-13T02:01:58.700Z,8.88
2023-02-13T02:04:31.891Z,9.25
2023-02-13T02:07:03.284Z,8.63
2023-02-13T02:09:37.489Z,8.63
2023-02-13T02:12:22.474Z,8.45
2023-02-13T02:14:50.436Z,7.72
2023-02-13T02:17:18.805Z,8.88
2023-02-13T02:20:10.386Z,9.50
2023-02-13T02:22:55.181Z,8.50
2023-02-13T02:25:24.612Z,8.80
2023-02-13T02:28:22.550Z,8.85
2023-02-13T02:31:23.499Z,8.25
2023-02-13T02:33:59.358Z,7.50
2023-02-13T02:36:39.929Z,9.18
2023-02-13T02:39:17.374Z,8.60
2023-02-13T02:41:58.214Z,8.20
2023-02-13T02:44:47.857Z,9.27
2023-02-13T02:48:00.494Z,8.68
2023-02-13T02:50:35.674Z,9.05
2023-02-13T02:53:25.149Z,8.90
2023-02-13T02:56:10.677Z,8.60
2023-02-13T02:59:06.898Z,7.95
2023-02-13T03:01:54.633Z,7.88
2023-02-13T03:04:52.067Z,7.60
2023-02-13T03:10:08.624Z,8.30
2023-02-13T03:13:04.125Z,7.72
2023-02-13T03:15:31.751Z,7.93
2023-02-13T03:18:18.007Z,6.68
2023-02-13T03:21:29.458Z,6.63
2023-02-13T03:24:22.583Z,6.80
2023-02-13T03:27:08.923Z,6.50
2023-02-13T03:30:07.439Z,5.40
2023-02-13T03:32:59.654Z,4.60
2023-02-13T03:36:01.665Z,5.50
2023-02-13T03:38:46.837Z,4.00
2023-02-13T03:41:20.176Z,3.63
2023-02-13T03:43:58.839Z,3.72
2023-02-13T03:46:28.978Z,3.72
2023-02-13T03:49:15.954Z,3.25
2023-02-13T03:51:49.235Z,3.20
2023-02-13T03:54:49.745Z,4.28
2023-02-13T03:57:39.023Z,3.80
2023-02-13T04:00:09.389Z,3.08
2023-02-13T04:02:54.344Z,2.65
2023-02-13T04:05:25.990Z,3.53
2023-02-13T04:07:52.769Z,2.88
2023-02-13T04:10:19.990Z,2.88
2023-02-13T04:13:09.604Z,3.53
2023-02-13T04:15:46.571Z,3.28
2023-02-13T04:18:25.604Z,2.97
2023-02-13T04:20:52.556Z,3.00
2023-02-13T04:23:19.834Z,2.92
2023-02-13T04:25:50.525Z,3.17
2023-02-13T04:28:17.412Z,2.88
2023-02-13T04:30:43.997Z,3.00
2023-02-13T04:33:10.632Z,2.75
2023-02-13T04:35:37.248Z,2.97
2023-02-13T04:38:04.679Z,2.97
2023-02-13T04:40:31.313Z,2.80
2023-02-13T04:42:58.396Z,2.78
2023-02-13T04:45:25.064Z,2.58
2023-02-13T04:47:53.979Z,2.25
2023-02-13T04:50:21.622Z,2.58
2023-02-13T04:52:53.049Z,2.97
2023-02-13T04:55:19.782Z,2.42
2023-02-13T04:57:46.465Z,3.10
2023-02-13T05:00:13.540Z,2.80
2023-02-13T05:02:40.098Z,2.72
2023-02-13T05:05:06.778Z,2.80
2023-02-13T05:07:33.299Z,2.58
2023-02-13T05:09:59.929Z,2.97
2023-02-13T05:12:26.592Z,2.78
2023-02-13T05:14:53.410Z,2.40
2023-02-13T05:17:20.106Z,2.45
2023-02-13T05:19:46.816Z,2.65
2023-02-13T05:22:32.192Z,2.65
2023-02-13T05:24:58.826Z,2.78
2023-02-13T05:27:25.408Z,2.28
2023-02-13T05:29:52.137Z,2.20
2023-02-13T05:32:18.845Z,2.63
2023-02-13T05:34:45.594Z,2.60
2023-02-13T05:37:12.321Z,2.38
2023-02-13T05:39:39.072Z,2.80
2023-02-13T05:42:05.927Z,2.50
2023-02-13T05:44:32.851Z,2.70
2023-02-13T05:46:59.629Z,2.60
2023-02-13T05:49:26.242Z,2.97
2023-02-13T05:51:52.849Z,2.33
2023-02-13T05:54:19.469Z,2.35
2023-02-13T05:56:46.844Z,2.35
2023-02-13T05:59:13.941Z,2.10
2023-02-13T06:01:40.836Z,3.03
2023-02-13T06:04:07.652Z,2.72
2023-02-13T06:06:34.335Z,3.05
2023-02-13T06:09:01.117Z,2.60
2023-02-13T06:11:27.655Z,3.95
2023-02-13T06:13:54.284Z,2.80
2023-02-13T06:16:21.067Z,3.58
2023-02-13T06:18:47.912Z,3.67
2023-02-13T06:21:14.534Z,3.58
2023-02-13T06:23:41.109Z,3.60
2023-02-13T06:26:09.042Z,4.20
2023-02-13T06:28:35.998Z,3.42
2023-02-13T06:31:03.003Z,4.28
2023-02-13T06:33:29.834Z,3.70
2023-02-13T06:35:56.498Z,3.60
2023-02-13T06:38:24.251Z,4.13
2023-02-13T06:40:51.113Z,3.55
2023-02-13T06:43:18.094Z,3.75
2023-02-13T06:45:46.815Z,2.88
2023-02-13T06:48:14.114Z,3.50
2023-02-13T06:50:40.840Z,3.85
2023-02-13T06:53:07.458Z,3.35
2023-02-13T06:55:34.121Z,3.38
2023-02-13T06:58:00.769Z,3.30
2023-02-13T07:00:27.502Z,3.35
2023-02-13T07:02:54.231Z,3.65
2023-02-13T07:05:20.830Z,3.00
2023-02-13T07:07:47.442Z,2.78
2023-02-13T07:10:14.648Z,3.58
2023-02-13T07:12:41.822Z,2.88
2023-02-13T07:15:09.162Z,3.60
2023-02-13T07:17:36.406Z,3.65
2023-02-13T07:20:04.569Z,2.90
2023-02-13T07:22:32.738Z,3.35
2023-02-13T07:25:00.001Z,4.05
2023-02-13T07:27:29.201Z,3.22
2023-02-13T07:29:58.724Z,3.40
2023-02-13T07:32:25.738Z,3.00
2023-02-13T07:35:01.674Z,3.65
2023-02-13T07:37:30.733Z,3.50
2023-02-13T07:39:57.465Z,3.95
2023-02-13T07:42:24.306Z,3.30
2023-02-13T07:44:50.858Z,3.38
2023-02-13T07:47:19.790Z,3.58
2023-02-13T07:49:46.777Z,3.97
2023-02-13T07:52:13.598Z,3.65
2023-02-13T07:54:47.039Z,3.78
2023-02-13T07:57:17.013Z,3.88
2023-02-13T07:59:43.762Z,3.38
2023-02-13T08:02:14.878Z,3.58
2023-02-13T08:04:46.067Z,3.72
2023-02-13T08:07:14.220Z,3.95
2023-02-13T08:09:59.563Z,3.67
2023-02-13T08:12:26.217Z,4.10
2023-02-13T08:14:53.625Z,4.18
2023-02-13T08:17:20.335Z,3.97
2023-02-13T08:19:47.057Z,4.28
2023-02-13T08:22:13.734Z,3.65
2023-02-13T08:24:40.653Z,3.67
2023-02-13T08:27:07.337Z,3.55
2023-02-13T08:29:34.510Z,3.80
2023-02-13T08:32:01.148Z,3.38
2023-02-13T08:34:27.702Z,3.95
2023-02-13T08:36:54.374Z,3.90
2023-02-13T08:39:21.432Z,4.43
2023-02-13T08:41:47.968Z,4.30
2023-02-13T08:44:14.487Z,5.13
2023-02-13T08:46:41.130Z,3.88
2023-02-13T08:49:07.680Z,3.50
2023-02-13T08:51:34.380Z,4.45
2023-02-13T08:54:01.010Z,3.58
2023-02-13T08:56:27.683Z,3.92
2023-02-13T08:58:54.961Z,3.75
2023-02-13T09:01:23.999Z,4.38
2023-02-13T09:03:50.533Z,4.03
2023-02-13T09:06:17.132Z,3.53
2023-02-13T09:08:43.821Z,3.72
2023-02-13T09:11:10.519Z,3.47
2023-02-13T09:13:37.224Z,3.30
2023-02-13T09:16:06.861Z,4.10
2023-02-13T09:18:35.102Z,3.67
2023-02-13T09:21:07.838Z,4.65
2023-02-13T09:23:37.421Z,3.47
2023-02-13T09:26:06.964Z,3.88
2023-02-13T09:28:35.631Z,3.38
2023-02-13T09:31:10.480Z,3.72
2023-02-13T09:33:37.700Z,4.30
2023-02-13T09:36:06.098Z,4.18
2023-02-13T09:38:33.564Z,3.45
2023-02-13T09:41:05.396Z,3.88
2023-02-13T09:43:41.023Z,4.53
2023-02-13T09:46:38.278Z,3.00
2023-02-13T09:49:18.691Z,4.53
2023-02-13T09:51:54.026Z,4.13
2023-02-13T09:57:27.978Z,3.72
2023-02-13T10:00:19.587Z,3.85
2023-02-13T10:02:58.338Z,3.88
2023-02-13T10:05:46.717Z,4.32
2023-02-13T10:08:37.989Z,3.42
2023-02-13T10:11:25.774Z,3.58
2023-02-13T10:14:10.476Z,4.22
2023-02-13T10:17:10.905Z,3.20
2023-02-13T10:19:44.478Z,3.08
2023-02-13T10:22:15.952Z,4.05
2023-02-13T10:24:51.715Z,3.75
2023-02-13T10:27:25.801Z,3.38
2023-02-13T10:30:09.101Z,4.30
2023-02-13T10:33:11.288Z,3.35
2023-02-13T10:35:39.251Z,4.30
2023-02-13T10:38:18.641Z,3.25
2023-02-13T10:41:23.558Z,4.13
2023-02-13T10:44:10.788Z,4.18
2023-02-13T10:46:55.862Z,3.78
2023-02-13T10:49:35.795Z,3.75
2023-02-13T10:52:17.920Z,3.20
2023-02-13T10:54:47.914Z,3.78
2023-02-13T10:57:24.620Z,3.63
2023-02-13T10:59:57.386Z,3.58
2023-02-13T11:02:29.762Z,3.75
2023-02-13T11:05:11.427Z,4.10
2023-02-13T11:07:39.676Z,4.45
2023-02-13T11:10:18.284Z,3.53
2023-02-13T11:12:45.690Z,3.97
2023-02-13T11:15:32.768Z,3.65
2023-02-13T11:18:11.809Z,3.33
2023-02-13T11:20:44.407Z,3.80
2023-02-13T11:23:32.343Z,3.75
2023-02-13T11:26:28.325Z,3.95
2023-02-13T11:28:57.693Z,3.28
2023-02-13T11:31:31.548Z,4.18
2023-02-13T11:34:17.302Z,3.72
2023-02-13T11:36:44.159Z,4.78
2023-02-13T11:39:22.519Z,4.43
2023-02-13T11:41:50.877Z,4.50
2023-02-13T11:44:26.248Z,4.05
2023-02-13T11:49:35.103Z,3.85
2023-02-13T11:52:05.294Z,4.38
2023-02-13T11:54:36.725Z,4.60
2023-02-13T11:57:21.875Z,4.60
2023-02-13T11:59:51.392Z,4.30
2023-02-13T12:02:21.002Z,4.03
2023-02-13T12:04:50.194Z,4.00
2023-02-13T12:07:24.775Z,4.60
2023-02-13T12:09:58.569Z,3.83
2023-02-13T12:12:32.855Z,4.55
2023-02-13T12:15:03.657Z,4.53
2023-02-13T12:17:32.478Z,3.65
2023-02-13T12:20:00.259Z,4.05
2023-02-13T12:22:45.200Z,4.60
2023-02-13T12:25:25.842Z,4.60
2023-02-13T12:28:12.679Z,4.55
2023-02-13T12:31:00.031Z,3.85
2023-02-13T12:33:59.352Z,3.97
2023-02-13T12:36:45.044Z,4.07
2023-02-13T12:39:17.893Z,4.88
2023-02-13T12:42:04.794Z,4.43
2023-02-13T12:44:43.178Z,4.15
2023-02-13T12:47:23.840Z,4.07
2023-02-13T12:50:28.666Z,3.95
2023-02-13T12:53:23.250Z,5.03
2023-02-13T12:56:40.892Z,4.65
2023-02-13T12:59:25.667Z,4.05
2023-02-13T13:02:11.567Z,4.50
2023-02-13T13:04:47.951Z,4.38
2023-02-13T13:07:23.575Z,4.50
2023-02-13T13:09:55.566Z,4.85
2023-02-13T13:12:33.042Z,4.93
2023-02-13T13:15:23.624Z,5.15
2023-02-13T13:18:14.085Z,4.60
2023-02-13T13:21:00.042Z,4.47
2023-02-13T13:23:50.116Z,4.30
2023-02-13T13:26:21.251Z,4.30
2023-02-13T13:28:52.586Z,4.03
2023-02-13T13:31:21.202Z,4.57
2023-02-13T13:33:48.284Z,4.90
2023-02-13T13:36:33.202Z,4.15
2023-02-13T13:39:36.831Z,4.43
2023-02-13T13:42:13.353Z,3.88
2023-02-13T13:45:28.547Z,4.35
2023-02-13T13:48:06.208Z,3.70
2023-02-13T13:50:37.594Z,4.20
2023-02-13T13:53:09.038Z,4.20
2023-02-13T13:55:48.444Z,4.38
2023-02-13T13:58:40.750Z,4.18
2023-02-13T14:01:29.640Z,4.18
2023-02-13T14:04:04.641Z,3.75
2023-02-13T14:06:43.302Z,3.75
2023-02-13T14:09:43.464Z,3.58
2023-02-13T14:12:37.165Z,3.53
2023-02-13T14:15:04.130Z,3.97
2023-02-13T14:18:01.279Z,3.88
2023-02-13T14:20:33.732Z,4.15
2023-02-13T14:23:33.871Z,3.30
2023-02-13T14:26:11.044Z,3.60
2023-02-13T14:28:39.746Z,4.18
2023-02-13T14:31:25.049Z,3.80
2023-02-13T14:34:10.639Z,3.67
2023-02-13T14:36:46.689Z,3.78
2023-02-13T14:39:26.717Z,4.35
2023-02-13T14:41:56.464Z,3.22
2023-02-13T14:44:33.844Z,2.88
2023-02-13T14:47:05.171Z,3.90
2023-02-13T14:49:36.676Z,4.20
2023-02-13T14:52:07.312Z,4.18
2023-02-13T14:54:42.094Z,3.70
2023-02-13T14:57:20.017Z,3.55
2023-02-13T14:59:50.245Z,3.17
2023-02-13T15:02:26.385Z,4.47
2023-02-13T15:05:02.295Z,3.88
2023-02-13T15:07:40.023Z,3.25
2023-02-13T15:10:31.946Z,2.80
2023-02-13T15:13:00.748Z,3.60
2023-02-13T15:15:31.990Z,3.97
2023-02-13T15:18:07.643Z,3.35
2023-02-13T15:20:37.584Z,3.08
2023-02-13T15:23:09.430Z,3.50
2023-02-13T15:25:41.003Z,3.53
2023-02-13T15:28:16.972Z,3.15
2023-02-13T15:30:53.927Z,3.25
2023-02-13T15:33:22.913Z,3.47
2023-02-13T15:36:01.440Z,2.53
2023-02-13T15:38:34.534Z,3.15
2023-02-13T15:41:12.106Z,2.83
2023-02-13T15:43:48.307Z,3.42
2023-02-13T15:46:20.710Z,3.00
2023-02-13T15:48:47.872Z,3.33
2023-02-13T15:51:25.266Z,3.50
2023-02-13T15:54:00.588Z,3.58
2023-02-13T15:56:27.536Z,2.72
2023-02-13T15:58:55.909Z,2.97
2023-02-13T16:01:23.277Z,3.05
2023-02-13T16:03:54.103Z,3.22
2023-02-13T16:06:24.930Z,3.95
2023-02-13T16:08:57.633Z,3.20
2023-02-13T16:11:24.492Z,3.20
2023-02-13T16:14:03.311Z,3.13
2023-02-13T16:16:44.075Z,3.55
2023-02-13T16:19:36.028Z,3.65
2023-02-13T16:22:31.095Z,3.40
2023-02-13T16:25:28.838Z,3.03
2023-02-13T16:27:58.936Z,3.85
2023-02-13T16:30:35.851Z,3.75
2023-02-13T16:33:15.043Z,3.35
2023-02-13T16:35:49.008Z,4.18
2023-02-13T16:38:27.626Z,3.83
2023-02-13T16:40:55.773Z,4.82
2023-02-13T16:43:51.582Z,5.15
2023-02-13T16:46:22.769Z,4.57
2023-02-13T16:49:01.456Z,4.95
2023-02-13T16:51:54.105Z,3.50
2023-02-13T16:55:02.305Z,3.78
2023-02-13T16:57:34.461Z,4.05
2023-02-13T17:00:22.630Z,4.80
2023-02-13T17:02:50.836Z,4.35
2023-02-13T17:05:27.708Z,4.65
2023-02-13T17:08:01.289Z,5.32
2023-02-13T17:10:37.990Z,5.38
2023-02-13T17:13:13.303Z,5.78
2023-02-13T17:15:45.224Z,4.80
2023-02-13T17:18:12.427Z,4.32
2023-02-13T17:20:43.167Z,3.42
2023-02-13T17:23:20.701Z,3.72
2023-02-13T17:25:51.213Z,3.50
2023-02-13T17:28:26.452Z,3.85
2023-02-13T17:30:56.573Z,4.05
2023-02-13T17:33:26.338Z,3.45
2023-02-13T17:35:53.416Z,3.45
2023-02-13T17:38:20.594Z,3.90
2023-02-13T17:40:47.745Z,3.70
2023-02-13T17:43:17.042Z,4.72
2023-02-13T17:45:44.027Z,5.10
2023-02-13T17:48:10.682Z,6.25
2023-02-13T17:50:38.172Z,7.15
2023-02-13T17:53:07.582Z,6.30
2023-02-13T17:55:35.356Z,6.53
2023-02-13T17:58:02.417Z,4.53
2023-02-13T18:00:32.655Z,5.38
2023-02-13T18:03:00.519Z,3.75
2023-02-13T18:05:28.705Z,3.95
2023-02-13T18:07:55.772Z,4.00
2023-02-13T18:10:26.030Z,4.65
2023-02-13T18:12:53.952Z,4.53
2023-02-13T18:15:21.382Z,4.25
2023-02-13T18:17:48.266Z,4.90
2023-02-13T18:20:18.038Z,3.83
2023-02-13T18:22:44.709Z,4.05
2023-02-13T18:25:11.522Z,3.92
2023-02-13T18:27:38.358Z,4.10
2023-02-13T18:30:06.456Z,4.20
2023-02-13T18:32:33.684Z,4.05
2023-02-13T18:35:00.994Z,3.63
2023-02-13T18:37:29.408Z,4.38
2023-02-13T18:39:56.905Z,3.90
2023-02-13T18:42:23.569Z,3.90
2023-02-13T18:44:50.304Z,4.60
2023-02-13T18:47:17.464Z,3.47
2023-02-13T18:49:46.251Z,3.63
2023-02-13T18:52:13.336Z,4.00
2023-02-13T18:54:39.938Z,3.70
2023-02-13T18:57:06.948Z,4.13
2023-02-13T18:59:33.607Z,3.90
2023-02-13T19:02:02.110Z,3.72
2023-02-13T19:04:29.761Z,4.05
2023-02-13T19:06:56.457Z,5.30
2023-02-13T19:09:23.018Z,4.80
2023-02-13T19:11:49.809Z,4.45
2023-02-13T19:14:16.437Z,4.38
2023-02-13T19:16:43.166Z,4.47
2023-02-13T19:19:10.365Z,4.47
2023-02-13T19:21:38.407Z,4.10
2023-02-13T19:24:08.620Z,5.03
2023-02-13T19:26:35.449Z,4.60
2023-02-13T19:29:02.054Z,4.68
2023-02-13T19:31:30.701Z,3.65
2023-02-13T19:33:57.478Z,4.63
2023-02-13T19:36:26.321Z,5.00
2023-02-13T19:38:55.321Z,4.32
2023-02-13T19:41:21.909Z,4.53
2023-02-13T19:43:53.170Z,4.05
2023-02-13T19:46:22.910Z,4.18
2023-02-13T19:48:50.524Z,4.70
2023-02-13T19:51:19.943Z,5.25
2023-02-13T19:53:47.097Z,5.95
2023-02-13T19:56:14.617Z,5.35
2023-02-13T19:58:42.446Z,5.10
2023-02-13T20:01:11.185Z,6.07
2023-02-13T20:03:37.821Z,5.20
2023-02-13T20:06:09.726Z,4.88
2023-02-13T20:08:36.752Z,5.63
2023-02-13T20:11:05.863Z,4.78
2023-02-13T20:13:32.519Z,4.50
2023-02-13T20:15:59.187Z,5.43
2023-02-13T20:18:25.940Z,5.68
2023-02-13T20:20:52.468Z,4.50
2023-02-13T20:23:19.993Z,5.22
2023-02-13T20:25:46.589Z,5.63
2023-02-13T20:28:13.339Z,4.93
2023-02-13T20:30:44.368Z,6.57
2023-02-13T20:33:11.127Z,4.57
2023-02-13T20:35:37.612Z,5.20
2023-02-13T20:38:04.643Z,4.90
2023-02-13T20:40:31.240Z,4.72
2023-02-13T20:42:58.029Z,4.82
2023-02-13T20:45:25.124Z,5.72
2023-02-13T20:47:51.788Z,5.20
2023-02-13T20:50:18.762Z,4.53
2023-02-13T20:52:45.384Z,4.65
2023-02-13T20:55:11.925Z,5.03
2023-02-13T20:57:38.845Z,4.95
2023-02-13T21:00:07.232Z,4.53
2023-02-13T21:02:33.889Z,4.90
2023-02-13T21:05:00.764Z,4.75
2023-02-13T21:07:27.348Z,4.28
2023-02-13T21:09:53.964Z,4.53
2023-02-13T21:12:20.709Z,4.60
2023-02-13T21:14:47.285Z,5.53
2023-02-13T21:17:13.945Z,4.32
2023-02-13T21:19:41.681Z,4.35
2023-02-13T21:22:12.041Z,4.43
2023-02-13T21:24:40.996Z,4.55
2023-02-13T21:27:08.769Z,4.20
2023-02-13T21:29:35.939Z,4.38
2023-02-13T21:32:03.277Z,5.03
2023-02-13T21:34:30.386Z,4.00
2023-02-13T21:36:57.012Z,4.28
2023-02-13T21:39:23.738Z,4.78
2023-02-13T21:41:50.430Z,5.15
2023-02-13T21:44:17.128Z,4.90
2023-02-13T21:46:45.160Z,4.32
2023-02-13T21:49:14.737Z,3.53
2023-02-13T21:51:42.006Z,4.18
2023-02-13T21:54:09.508Z,4.85
2023-02-13T21:56:39.008Z,3.92
2023-02-13T21:59:06.234Z,3.75
2023-02-13T22:01:44.767Z,4.22
2023-02-13T22:04:11.449Z,4.90
2023-02-13T22:06:39.777Z,3.95
2023-02-13T22:09:09.478Z,4.97
2023-02-13T22:11:36.788Z,4.28
2023-02-13T22:14:05.266Z,3.83
2023-02-13T22:16:37.278Z,4.68
2023-02-13T22:19:05.391Z,5.25
2023-02-13T22:21:33.204Z,5.50
2023-02-13T22:24:00.605Z,5.28
2023-02-13T22:26:45.370Z,4.88
2023-02-13T22:29:14.678Z,4.78
2023-02-13T22:31:41.658Z,5.75
2023-02-13T22:34:13.242Z,4.75
2023-02-13T22:36:41.046Z,5.20
2023-02-13T22:39:09.334Z,5.20
2023-02-13T22:41:36.579Z,5.72
2023-02-13T22:44:03.482Z,6.07
2023-02-13T22:46:32.248Z,6.90
2023-02-13T22:48:59.630Z,4.63
2023-02-13T22:51:32.603Z,5.78
2023-02-13T22:53:59.894Z,4.40
2023-02-13T22:56:28.511Z,4.60
2023-02-13T22:58:55.189Z,4.88
2023-02-13T23:01:23.891Z,6.57
2023-02-13T23:03:50.702Z,5.28
2023-02-13T23:06:18.590Z,5.43
2023-02-13T23:08:48.855Z,5.72
2023-02-13T23:11:35.558Z,5.45
2023-02-13T23:14:02.904Z,5.15
2023-02-13T23:16:52.769Z,5.00
2023-02-13T23:19:20.730Z,5.18
2023-02-13T23:21:47.338Z,4.82
2023-02-13T23:24:13.988Z,4.55
2023-02-13T23:26:40.511Z,5.88
2023-02-13T23:29:07.050Z,4.88
2023-02-13T23:31:33.690Z,5.95
2023-02-13T23:34:00.311Z,5.22
2023-02-13T23:36:26.831Z,4.30
2023-02-13T23:38:53.430Z,4.65
2023-02-13T23:41:20.236Z,5.47
2023-02-13T23:43:46.807Z,5.10
2023-02-13T23:46:13.505Z,5.28
2023-02-13T23:48:40.237Z,5.10
2023-02-13T23:51:06.806Z,4.80
2023-02-13T23:53:36.776Z,4.68
2023-02-13T23:56:04.447Z,4.25
2023-02-13T23:58:31.143Z,4.75
